Time;durP1;ratioP1;P1;durP2;ratioP2;P2;SDS_P1;SDS_P2;PMS_P1;PMS_P2;Temp;Humidity;BMP_temperature;BMP_pressure;BME280_temperature;BME280_humidity;BME280_pressure;Samples;Min_cycle;Max_cycle;Signal;HPM_P1;HPM_P2
2022/10/12 00:02:13;;;;;;;10.10;3.60;;;;;;;7.58;100.00;99900.41;5057666;28;20647;-79
2022/10/12 00:04:42;;;;;;;10.63;3.30;;;;;;;7.70;100.00;99900.75;5074957;28;20226;-78
2022/10/12 00:07:12;;;;;;;7.27;3.33;;;;;;;7.48;100.00;99899.91;5074027;28;20219;-79
2022/10/12 00:09:40;;;;;;;8.57;3.77;;;;;;;7.56;100.00;99896.97;5065421;28;20290;-79
2022/10/12 00:12:09;;;;;;;9.13;3.73;;;;;;;7.37;100.00;99900.34;5075707;28;20249;-79
2022/10/12 00:14:38;;;;;;;10.93;3.63;;;;;;;7.55;100.00;99900.53;5072695;28;20201;-79
2022/10/12 00:17:08;;;;;;;11.07;3.90;;;;;;;7.44;100.00;99887.78;5072343;28;20746;-78
2022/10/12 00:19:37;;;;;;;6.97;3.77;;;;;;;7.18;100.00;99896.69;5017784;28;20198;-78
2022/10/12 00:22:06;;;;;;;11.60;4.27;;;;;;;7.04;100.00;99893.69;5010105;28;20245;-79
2022/10/12 00:24:36;;;;;;;10.20;4.37;;;;;;;7.13;100.00;99902.13;5012225;28;20245;-78
2022/10/12 00:27:10;;;;;;;8.57;3.90;;;;;;;7.06;100.00;99902.44;5014826;28;20261;-79
2022/10/12 00:29:38;;;;;;;9.17;3.67;;;;;;;6.88;100.00;99902.19;5012075;28;20191;-79
2022/10/12 00:32:08;;;;;;;8.73;4.03;;;;;;;6.85;100.00;99906.69;5011159;28;20202;-79
2022/10/12 00:34:36;;;;;;;11.30;4.43;;;;;;;6.77;100.00;99908.78;5010979;28;20221;-79
2022/10/12 00:37:05;;;;;;;9.97;4.13;;;;;;;6.91;100.00;99908.25;5010894;28;20214;-78
2022/10/12 00:39:38;;;;;;;9.03;3.97;;;;;;;6.76;100.00;99907.06;4977301;28;20202;-79
2022/10/12 00:42:06;;;;;;;8.20;3.97;;;;;;;6.81;100.00;99908.59;5011851;28;20190;-78
2022/10/12 00:44:39;;;;;;;9.77;4.40;;;;;;;6.79;100.00;99917.47;5005252;28;20198;-80
2022/10/12 00:47:17;;;;;;;9.43;3.80;;;;;;;6.69;100.00;99914.31;5011818;28;20205;-79
2022/10/12 00:49:51;;;;;;;9.40;4.10;;;;;;;6.56;100.00;99905.13;5012741;28;20247;-79
2022/10/12 00:52:23;;;;;;;7.10;3.80;;;;;;;6.65;100.00;99910.06;5008318;28;20193;-79
2022/10/12 00:54:57;;;;;;;8.87;4.00;;;;;;;6.61;100.00;99905.81;5010489;28;20202;-82
2022/10/12 00:57:26;;;;;;;10.13;4.30;;;;;;;6.57;100.00;99906.88;4936347;29;20217;-78
2022/10/12 00:59:58;;;;;;;8.73;3.87;;;;;;;6.57;100.00;99906.88;4934400;29;20624;-79
2022/10/12 01:02:30;;;;;;;7.87;3.80;;;;;;;6.57;100.00;99906.88;4926205;29;20209;-79
2022/10/12 01:05:00;;;;;;;7.17;4.03;;;;;;;6.68;100.00;99901.22;4932320;29;20205;-79
2022/10/12 01:07:29;;;;;;;10.07;4.40;;;;;;;6.63;100.00;99906.63;4928057;29;20692;-78
2022/10/12 01:09:59;;;;;;;12.40;4.30;;;;;;;6.52;100.00;99909.66;4931372;29;20233;-79
2022/10/12 01:12:29;;;;;;;8.93;4.00;;;;;;;6.53;100.00;99906.09;4935063;29;20208;-78
2022/10/12 01:14:58;;;;;;;7.83;3.67;;;;;;;6.35;100.00;99911.13;4930291;29;20201;-78
2022/10/12 01:17:38;;;;;;;8.67;3.30;;;;;;;6.38;100.00;99908.44;4896515;29;20260;-79
2022/10/12 01:20:36;;;;;;;8.57;4.03;;;;;;;6.44;100.00;99913.44;4908968;29;20209;-78
2022/10/12 01:23:34;;;;;;;8.43;3.80;;;;;;;6.54;100.00;99914.84;4979904;28;20281;-79
2022/10/12 01:26:37;;;;;;;8.13;3.70;;;;;;;6.49;100.00;99914.16;4953152;28;20258;-79
2022/10/12 01:29:23;;;;;;;11.23;4.27;;;;;;;6.44;100.00;99910.81;4987236;28;20233;-79
2022/10/12 01:31:59;;;;;;;7.30;3.40;;;;;;;6.41;100.00;99905.69;4989208;28;20207;-79
2022/10/12 01:34:35;;;;;;;8.97;3.67;;;;;;;6.40;100.00;99906.59;4987858;28;20265;-79
2022/10/12 01:37:11;;;;;;;9.37;4.23;;;;;;;6.24;100.00;99901.84;4994134;28;20257;-79
2022/10/12 01:39:46;;;;;;;10.23;3.80;;;;;;;6.23;100.00;99905.41;4963568;29;20249;-79
2022/10/12 01:42:20;;;;;;;6.73;3.60;;;;;;;6.17;100.00;99899.47;4958951;29;20188;-79
2022/10/12 01:44:49;;;;;;;7.10;3.97;;;;;;;6.21;100.00;99901.09;4956301;29;20251;-79
2022/10/12 01:47:19;;;;;;;9.33;3.63;;;;;;;6.10;100.00;99903.25;4952762;29;20225;-79
2022/10/12 01:49:48;;;;;;;8.40;3.83;;;;;;;6.15;100.00;99899.53;5008629;28;20230;-79
2022/10/12 01:52:26;;;;;;;10.93;3.90;;;;;;;6.11;100.00;99892.66;5009210;28;20238;-79
2022/10/12 01:55:09;;;;;;;9.67;4.10;;;;;;;6.18;100.00;99899.44;5014720;28;20210;-79
2022/10/12 01:57:47;;;;;;;6.67;3.67;;;;;;;6.41;100.00;99889.88;5031199;28;20703;-79
2022/10/12 02:00:18;;;;;;;9.67;4.00;;;;;;;6.44;100.00;99884.50;5050889;28;20200;-79
2022/10/12 02:02:58;;;;;;;8.70;3.93;;;;;;;6.46;100.00;99891.44;5059483;28;20209;-79
2022/10/12 02:05:35;;;;;;;8.50;4.17;;;;;;;6.43;100.00;99881.03;5057039;28;20193;-79
2022/10/12 02:08:14;;;;;;;9.47;3.80;;;;;;;6.42;100.00;99884.56;5053620;28;20224;-79
2022/10/12 02:10:47;;;;;;;7.60;4.03;;;;;;;6.21;100.00;99877.44;5052906;28;20252;-79
2022/10/12 02:13:19;;;;;;;10.23;4.17;;;;;;;6.30;100.00;99879.75;5050491;28;20189;-78
2022/10/12 02:15:48;;;;;;;10.53;3.53;;;;;;;6.27;100.00;99879.84;5054207;28;20189;-79
2022/10/12 02:18:21;;;;;;;11.70;3.70;;;;;;;6.10;100.00;99871.69;5048796;28;20209;-79
2022/10/12 02:20:54;;;;;;;12.33;3.33;;;;;;;6.15;100.00;99878.50;5052205;28;20239;-79
2022/10/12 02:23:25;;;;;;;8.97;3.97;;;;;;;6.23;100.00;99873.81;5052364;28;20193;-79
2022/10/12 02:25:56;;;;;;;8.60;3.77;;;;;;;6.19;100.00;99869.59;5047745;28;20197;-79
2022/10/12 02:28:29;;;;;;;11.47;4.30;;;;;;;6.20;100.00;99868.69;5053818;28;20224;-79
2022/10/12 02:31:02;;;;;;;11.33;4.13;;;;;;;6.18;100.00;99867.03;5053989;28;20204;-79
2022/10/12 02:33:40;;;;;;;9.30;3.80;;;;;;;6.28;100.00;99868.44;5056854;28;20189;-79
2022/10/12 02:36:13;;;;;;;14.40;3.90;;;;;;;6.35;100.00;99869.91;5054163;28;20192;-79
2022/10/12 02:38:47;;;;;;;8.53;4.07;;;;;;;6.37;100.00;99870.72;5048875;28;20290;-79
2022/10/12 02:41:21;;;;;;;9.07;3.80;;;;;;;6.30;100.00;99863.97;5051234;28;20219;-79
2022/10/12 02:43:54;;;;;;;8.53;3.93;;;;;;;6.24;100.00;99859.75;5048266;28;20203;-78
2022/10/12 02:46:25;;;;;;;9.53;3.93;;;;;;;6.32;100.00;99855.09;5047924;28;20255;-78
2022/10/12 02:48:57;;;;;;;8.10;3.73;;;;;;;6.07;100.00;99859.47;5054106;28;20193;-79
2022/10/12 02:51:28;;;;;;;10.33;3.80;;;;;;;6.08;100.00;99849.81;5049501;28;20204;-79
2022/10/12 02:53:57;;;;;;;9.10;3.97;;;;;;;6.21;100.00;99856.38;5056170;28;20201;-78
2022/10/12 02:56:25;;;;;;;7.40;3.70;;;;;;;6.25;100.00;99855.34;5048004;28;20205;-78
2022/10/12 02:58:54;;;;;;;4.60;3.03;;;;;;;6.29;100.00;99851.72;5049161;28;20220;-78
2022/10/12 03:01:22;;;;;;;10.37;3.80;;;;;;;6.22;100.00;99858.97;5054629;28;20227;-78
2022/10/12 03:03:51;;;;;;;10.53;3.43;;;;;;;6.26;100.00;99847.41;5056808;28;20197;-79
2022/10/12 03:06:22;;;;;;;8.43;3.10;;;;;;;6.01;100.00;99857.09;5056850;28;20201;-78
2022/10/12 03:08:52;;;;;;;8.40;3.67;;;;;;;6.07;100.00;99856.84;5051022;28;20201;-78
2022/10/12 03:11:22;;;;;;;9.27;3.30;;;;;;;6.13;100.00;99850.53;5052410;28;20249;-78
2022/10/12 03:13:52;;;;;;;7.57;3.00;;;;;;;6.09;100.00;99852.41;5042140;28;20221;-78
2022/10/12 03:16:21;;;;;;;8.07;2.97;;;;;;;6.09;100.00;99852.41;5049705;28;20193;-78
2022/10/12 03:18:50;;;;;;;6.07;3.13;;;;;;;6.15;100.00;99844.31;5053086;28;20248;-78
2022/10/12 03:21:20;;;;;;;11.23;3.60;;;;;;;6.16;100.00;99846.00;5053428;28;20209;-78
2022/10/12 03:23:49;;;;;;;7.13;3.30;;;;;;;6.25;100.00;99848.31;5049392;28;20197;-78
2022/10/12 03:26:18;;;;;;;9.53;3.43;;;;;;;6.32;100.00;99849.84;5046814;28;20193;-78
2022/10/12 03:28:47;;;;;;;7.00;3.90;;;;;;;6.31;100.00;99850.75;5053730;28;20196;-78
2022/10/12 03:31:15;;;;;;;8.93;3.47;;;;;;;6.15;100.00;99843.44;5048419;28;20197;-78
2022/10/12 03:33:45;;;;;;;5.40;3.13;;;;;;;6.03;100.00;99842.09;5049132;28;20273;-78
2022/10/12 03:36:14;;;;;;;8.17;3.90;;;;;;;6.05;100.00;99831.53;5050623;28;20242;-78
2022/10/12 03:38:43;;;;;;;7.67;3.60;;;;;;;5.87;100.00;99846.13;5048898;28;20691;-78
2022/10/12 03:41:13;;;;;;;8.23;3.40;;;;;;;5.92;100.00;99845.09;5051998;28;20189;-78
2022/10/12 03:43:41;;;;;;;6.83;3.20;;;;;;;5.88;100.00;99850.47;5047430;28;20193;-78
2022/10/12 03:46:09;;;;;;;6.27;3.43;;;;;;;5.88;100.00;99855.72;5053092;28;20197;-77
2022/10/12 03:48:38;;;;;;;9.47;4.00;;;;;;;5.65;100.00;99854.72;5047009;28;20204;-79
2022/10/12 03:51:06;;;;;;;10.77;4.23;;;;;;;5.62;100.00;99852.22;5048125;28;20205;-78
2022/10/12 03:53:36;;;;;;;9.10;3.80;;;;;;;5.67;100.00;99852.03;5048267;28;20227;-78
2022/10/12 03:56:13;;;;;;;8.17;3.70;;;;;;;5.75;100.00;99853.50;5049864;28;20246;-79
2022/10/12 03:58:41;;;;;;;8.97;3.70;;;;;;;5.78;100.00;99855.16;4989498;28;20258;-78
2022/10/12 04:01:09;;;;;;;11.17;4.27;;;;;;;5.80;100.00;99855.16;4988951;28;20198;-78
2022/10/12 04:03:38;;;;;;;10.50;3.63;;;;;;;5.83;100.00;99850.63;4986379;28;20195;-79
2022/10/12 04:06:07;;;;;;;8.67;3.63;;;;;;;5.69;100.00;99839.72;4989205;28;20203;-78
2022/10/12 04:08:36;;;;;;;8.57;3.83;;;;;;;5.64;100.00;99842.50;4980704;28;20199;-79
2022/10/12 04:11:07;;;;;;;9.60;3.93;;;;;;;5.59;100.00;99833.03;4983690;28;20231;-78
2022/10/12 04:13:37;;;;;;;12.87;3.90;;;;;;;5.57;100.00;99845.38;4986518;28;20198;-79
2022/10/12 04:16:07;;;;;;;10.27;3.80;;;;;;;5.55;100.00;99841.94;4995904;28;20236;-78
2022/10/12 04:18:36;;;;;;;10.00;3.90;;;;;;;5.49;100.00;99840.34;5053052;28;20263;-79
2022/10/12 04:21:09;;;;;;;6.67;3.97;;;;;;;5.42;100.00;99844.97;5052505;28;20201;-78
2022/10/12 04:23:39;;;;;;;7.57;3.50;;;;;;;5.43;100.00;99851.09;5051408;28;20236;-78
2022/10/12 04:26:08;;;;;;;6.13;3.53;;;;;;;5.27;100.00;99847.22;5016371;28;20189;-78
2022/10/12 04:28:38;;;;;;;6.73;4.17;;;;;;;5.32;100.00;99846.19;5049517;28;20255;-78
2022/10/12 04:31:07;;;;;;;12.40;4.60;;;;;;;5.26;100.00;99843.72;5046389;28;20215;-78
2022/10/12 04:33:35;;;;;;;10.50;4.83;;;;;;;5.26;100.00;99850.75;5052571;28;20190;-78
2022/10/12 04:36:04;;;;;;;10.47;4.00;;;;;;;5.17;100.00;99844.88;5055046;28;20204;-78
2022/10/12 04:38:32;;;;;;;10.17;4.63;;;;;;;5.24;100.00;99849.94;5050928;28;20235;-78
2022/10/12 04:41:01;;;;;;;10.83;4.80;;;;;;;5.25;100.00;99846.41;5052135;28;20200;-78
2022/10/12 04:43:29;;;;;;;7.07;4.00;;;;;;;5.24;100.00;99849.94;5047663;28;20223;-78
2022/10/12 04:46:00;;;;;;;8.37;4.10;;;;;;;5.09;100.00;99852.13;5053460;28;20190;-78
2022/10/12 04:48:29;;;;;;;10.73;4.53;;;;;;;5.21;100.00;99850.91;5054709;28;20193;-79
2022/10/12 04:50:59;;;;;;;7.70;4.57;;;;;;;5.27;100.00;99847.22;5053827;28;20243;-79
2022/10/12 04:53:28;;;;;;;6.83;4.07;;;;;;;5.26;100.00;99858.63;5051860;28;20247;-79
2022/10/12 04:55:56;;;;;;;9.97;4.10;;;;;;;5.22;100.00;99854.41;5052545;28;20197;-78
2022/10/12 04:58:24;;;;;;;8.27;4.33;;;;;;;5.17;100.00;99847.50;5058049;28;20212;-78
2022/10/12 05:00:53;;;;;;;7.60;4.07;;;;;;;5.22;100.00;99859.66;5053106;28;20243;-79
2022/10/12 05:03:23;;;;;;;9.33;4.50;;;;;;;5.13;100.00;99861.63;5048840;28;20217;-78
2022/10/12 05:05:52;;;;;;;7.93;4.03;;;;;;;5.25;100.00;99851.66;5051731;28;20242;-79
2022/10/12 05:08:20;;;;;;;7.40;4.23;;;;;;;5.23;100.00;99856.97;5046410;28;20235;-79
2022/10/12 05:10:49;;;;;;;8.33;4.20;;;;;;;5.20;100.00;99859.66;5047919;28;20237;-79
2022/10/12 05:13:17;;;;;;;7.77;4.43;;;;;;;5.25;100.00;99852.53;5051678;28;20201;-79
2022/10/12 05:15:46;;;;;;;8.87;4.60;;;;;;;5.12;100.00;99848.56;5055469;28;20200;-78
2022/10/12 05:18:14;;;;;;;11.67;4.73;;;;;;;5.14;100.00;99858.09;5048756;28;20337;-79
2022/10/12 05:20:44;;;;;;;11.97;4.90;;;;;;;4.97;100.00;99846.38;5048975;28;20200;-79
2022/10/12 05:23:13;;;;;;;7.77;4.43;;;;;;;4.96;100.00;99849.94;5050700;28;20197;-79
2022/10/12 05:25:43;;;;;;;16.43;5.40;;;;;;;4.84;100.00;99864.28;5049286;28;20231;-78
2022/10/12 05:28:11;;;;;;;8.83;4.77;;;;;;;4.89;100.00;99859.75;5051153;28;20243;-79
2022/10/12 05:30:44;;;;;;;13.33;5.07;;;;;;;4.95;100.00;99856.09;5049988;28;20200;-79
2022/10/12 05:33:13;;;;;;;12.13;5.33;;;;;;;5.01;100.00;99855.88;5016397;28;20201;-79
2022/10/12 05:35:44;;;;;;;11.10;6.20;;;;;;;5.11;100.00;99854.69;5052543;28;20204;-79
2022/10/12 05:38:17;;;;;;;8.90;5.90;;;;;;;5.03;100.00;99851.47;5053844;28;20218;-79
2022/10/12 05:40:46;;;;;;;11.60;5.33;;;;;;;5.01;100.00;99845.38;5045141;28;20246;-79
2022/10/12 05:43:16;;;;;;;10.63;5.40;;;;;;;5.14;100.00;99846.75;5047776;28;20200;-78
2022/10/12 05:45:46;;;;;;;13.83;5.37;;;;;;;5.08;100.00;99842.53;5053743;28;20204;-79
2022/10/12 05:48:14;;;;;;;9.73;4.73;;;;;;;4.99;100.00;99844.56;5055272;28;20239;-79
2022/10/12 05:50:44;;;;;;;6.83;4.33;;;;;;;5.21;100.00;99848.28;5051350;28;20269;-79
2022/10/12 05:53:12;;;;;;;7.67;4.90;;;;;;;5.16;100.00;99847.56;5047643;28;20205;-80
2022/10/12 05:55:52;;;;;;;10.30;4.97;;;;;;;4.98;100.00;99845.47;5056099;28;20205;-79
2022/10/12 05:58:20;;;;;;;7.37;5.00;;;;;;;5.00;100.00;99841.03;5056605;28;20667;-78
2022/10/12 06:00:49;;;;;;;12.00;4.43;;;;;;;4.99;100.00;99844.56;5055014;28;20197;-78
2022/10/12 06:03:18;;;;;;;11.10;5.37;;;;;;;4.98;100.00;99845.47;5053615;28;20201;-79
2022/10/12 06:05:51;;;;;;;10.67;4.60;;;;;;;4.91;100.00;99838.69;5058654;28;20193;-78
2022/10/12 06:08:19;;;;;;;12.93;5.20;;;;;;;4.93;100.00;99850.88;5046461;28;20204;-78
2022/10/12 06:10:51;;;;;;;7.07;4.80;;;;;;;5.03;100.00;99839.19;5048081;28;20757;-78
2022/10/12 06:13:22;;;;;;;11.60;5.10;;;;;;;4.90;100.00;99843.09;5051068;28;20251;-78
2022/10/12 06:15:51;;;;;;;9.30;4.90;;;;;;;5.05;100.00;99840.00;5048215;28;20270;-79
2022/10/12 06:18:20;;;;;;;8.07;4.80;;;;;;;5.06;100.00;99839.09;5052368;28;20411;-78
2022/10/12 06:20:50;;;;;;;9.57;4.67;;;;;;;4.95;100.00;99838.56;5038055;28;20244;-78
2022/10/12 06:23:37;;;;;;;7.47;4.23;;;;;;;5.09;100.00;99835.50;5049334;28;20224;-78
2022/10/12 06:26:06;;;;;;;6.33;4.13;;;;;;;5.14;100.00;99844.97;5052234;28;20189;-78
2022/10/12 06:28:34;;;;;;;7.50;4.50;;;;;;;4.97;100.00;99842.00;5045958;28;20246;-78
2022/10/12 06:31:03;;;;;;;10.33;4.30;;;;;;;5.12;100.00;99846.78;5045299;28;20193;-79
2022/10/12 06:33:31;;;;;;;8.73;4.87;;;;;;;5.19;100.00;99842.19;5047363;28;20201;-78
2022/10/12 06:35:59;;;;;;;8.20;4.70;;;;;;;5.24;100.00;99842.06;5053729;28;20197;-78
2022/10/12 06:38:28;;;;;;;12.70;4.97;;;;;;;5.31;100.00;99838.34;5044379;28;20259;-78
2022/10/12 06:40:58;;;;;;;11.97;4.67;;;;;;;5.25;100.00;99831.50;5053850;28;20216;-78
2022/10/12 06:43:26;;;;;;;10.13;5.10;;;;;;;5.20;100.00;99838.66;5049696;28;20201;-78
2022/10/12 06:46:00;;;;;;;9.23;4.53;;;;;;;5.33;100.00;99847.88;5051241;28;20637;-78
2022/10/12 06:48:28;;;;;;;9.87;4.50;;;;;;;5.47;100.00;99840.41;5048775;28;20714;-78
2022/10/12 06:50:57;;;;;;;11.73;5.27;;;;;;;5.55;100.00;99842.81;5049657;28;20193;-78
2022/10/12 06:53:27;;;;;;;12.63;5.87;;;;;;;5.66;100.00;99850.31;5052036;28;20205;-78
2022/10/12 06:55:55;;;;;;;17.93;8.47;;;;;;;5.87;100.00;99854.00;5052081;28;20189;-78
2022/10/12 06:58:25;;;;;;;15.43;8.47;;;;;;;5.80;100.00;99850.75;5056823;28;20189;-79
2022/10/12 07:00:55;;;;;;;17.87;7.83;;;;;;;5.96;100.00;99859.00;5051550;28;20224;-79
2022/10/12 07:03:24;;;;;;;12.07;6.80;;;;;;;5.97;100.00;99855.44;5032315;28;20185;-79
2022/10/12 07:05:52;;;;;;;12.10;6.37;;;;;;;5.98;100.00;99851.91;5024722;28;20264;-78
2022/10/12 07:08:21;;;;;;;11.13;5.87;;;;;;;6.05;100.00;99849.94;5022873;28;20202;-79
2022/10/12 07:10:49;;;;;;;10.60;5.03;;;;;;;6.31;100.00;99842.00;5027983;28;20234;-79
2022/10/12 07:13:29;;;;;;;11.60;5.50;;;;;;;6.34;100.00;99848.91;5028676;28;20197;-79
2022/10/12 07:15:57;;;;;;;8.80;5.60;;;;;;;6.43;100.00;99846.81;5029228;28;20193;-79
2022/10/12 07:18:27;;;;;;;8.70;5.60;;;;;;;6.59;100.00;99852.38;5026023;28;20205;-78
2022/10/12 07:20:58;;;;;;;9.03;5.07;;;;;;;6.60;100.00;99848.84;5026768;28;20225;-79
2022/10/12 07:23:27;;;;;;;6.63;4.60;;;;;;;6.75;100.00;99852.66;5022065;28;20194;-79
2022/10/12 07:25:56;;;;;;;10.97;5.10;;;;;;;6.85;100.00;99856.66;5027617;28;20205;-79
2022/10/12 07:28:27;;;;;;;8.17;5.33;;;;;;;6.88;100.00;99859.22;5024043;28;20201;-79
2022/10/12 07:31:02;;;;;;;11.33;5.47;;;;;;;6.80;100.00;99856.84;5028480;28;20198;-79
2022/10/12 07:33:34;;;;;;;9.67;4.83;;;;;;;6.85;100.00;99856.66;5026794;28;20656;-79
2022/10/12 07:36:03;;;;;;;11.40;5.03;;;;;;;7.17;100.00;99858.09;5046938;28;20189;-79
2022/10/12 07:38:51;;;;;;;9.90;5.00;;;;;;;7.14;100.00;99858.19;5051805;28;20205;-79
2022/10/12 07:41:20;;;;;;;9.17;5.40;;;;;;;7.19;100.00;99864.16;5052501;28;20306;-79
2022/10/12 07:43:48;;;;;;;9.93;5.40;;;;;;;7.25;100.00;99856.03;5046940;28;20185;-79
2022/10/12 07:46:18;;;;;;;9.80;5.30;;;;;;;7.34;100.00;99855.66;5028574;28;20670;-79
2022/10/12 07:48:47;;;;;;;8.10;5.17;;;;;;;7.45;100.00;99864.00;5046127;28;20200;-78
2022/10/12 07:51:17;;;;;;;10.07;5.10;;;;;;;7.57;100.00;99862.63;5010536;28;20190;-79
2022/10/12 07:53:47;;;;;;;9.27;5.23;;;;;;;7.79;100.00;99869.66;5010070;28;20206;-79
2022/10/12 07:56:16;;;;;;;8.50;5.50;;;;;;;7.84;100.00;99868.56;5006451;28;20198;-79
2022/10/12 07:58:49;;;;;;;8.63;4.80;;;;;;;7.95;100.00;99876.03;5011247;28;20245;-79
2022/10/12 08:01:20;;;;;;;10.77;5.33;;;;;;;8.09;100.00;99868.38;5008412;28;20218;-79
2022/10/12 08:03:49;;;;;;;10.27;5.20;;;;;;;7.97;100.00;99864.50;5011271;28;20217;-79
2022/10/12 08:06:21;;;;;;;7.57;4.70;;;;;;;8.13;100.00;99870.00;4967470;28;20196;-79
2022/10/12 08:08:50;;;;;;;10.13;5.07;;;;;;;8.27;100.00;99874.66;4969811;28;20218;-79
2022/10/12 08:11:19;;;;;;;6.67;4.30;;;;;;;8.41;100.00;99868.84;4969319;28;20274;-79
2022/10/12 08:13:48;;;;;;;7.60;4.10;;;;;;;8.47;100.00;99874.69;4966619;28;20196;-79
2022/10/12 08:16:21;;;;;;;11.80;4.90;;;;;;;8.58;100.00;99869.78;5010955;28;20189;-80
2022/10/12 08:18:49;;;;;;;9.30;4.97;;;;;;;8.45;100.00;99871.25;5032197;28;20281;-79
2022/10/12 08:21:21;;;;;;;9.43;4.93;;;;;;;8.49;100.00;99872.84;5030700;28;20244;-79
2022/10/12 08:23:49;;;;;;;9.23;5.20;;;;;;;8.60;100.00;99869.75;5038343;28;20243;-79
2022/10/12 08:26:17;;;;;;;8.17;4.63;;;;;;;8.54;100.00;99860.28;5050150;28;20251;-79
2022/10/12 08:28:46;;;;;;;11.43;5.07;;;;;;;8.74;100.00;99862.03;5052994;28;20220;-80
2022/10/12 08:31:16;;;;;;;9.40;4.80;;;;;;;8.92;100.00;99860.34;5051266;28;20205;-79
2022/10/12 08:33:46;;;;;;;7.87;4.50;;;;;;;9.04;100.00;99861.56;5053939;28;20193;-79
2022/10/12 08:36:15;;;;;;;9.87;4.80;;;;;;;9.17;100.00;99862.72;5055974;28;20197;-79
2022/10/12 08:38:47;;;;;;;12.40;5.10;;;;;;;9.16;100.00;99855.69;5056101;28;20193;-79
2022/10/12 08:41:33;;;;;;;11.63;4.67;;;;;;;8.99;100.00;99853.88;5051344;28;20299;-79
2022/10/12 08:44:22;;;;;;;9.53;4.57;;;;;;;9.36;100.00;99853.00;5055131;28;20242;-79
2022/10/12 08:46:55;;;;;;;11.23;4.90;;;;;;;9.42;100.00;99857.13;5055888;28;20261;-79
2022/10/12 08:49:28;;;;;;;10.40;4.33;;;;;;;9.69;100.00;99853.13;5036425;28;20204;-79
2022/10/12 08:51:59;;;;;;;12.63;4.47;;;;;;;9.73;100.00;99857.31;5051102;28;20205;-79
2022/10/12 08:54:36;;;;;;;14.30;4.77;;;;;;;9.97;100.00;99847.31;5052046;28;20207;-79
2022/10/12 08:57:05;;;;;;;8.17;4.67;;;;;;;10.07;100.00;99849.50;5052348;28;20193;-79
2022/10/12 08:59:33;;;;;;;7.50;4.03;;;;;;;9.95;100.00;99851.00;5050145;28;20201;-79
2022/10/12 09:02:14;;;;;;;9.17;4.00;;;;;;;10.51;100.00;99850.72;5054224;28;20216;-79
2022/10/12 09:04:54;;;;;;;10.53;4.00;;;;;;;10.90;100.00;99844.25;5051871;28;20264;-80
2022/10/12 09:07:29;;;;;;;7.27;3.70;;;;;;;11.20;100.00;99840.88;5047629;28;20224;-79
2022/10/12 09:10:11;;;;;;;6.77;4.10;;;;;;;11.27;100.00;99837.78;5050455;28;20213;-79
2022/10/12 09:12:49;;;;;;;7.13;4.40;;;;;;;11.39;100.00;99836.25;5055489;28;20644;-79
2022/10/12 09:15:23;;;;;;;10.83;4.00;;;;;;;11.21;100.00;99835.47;5047420;28;20228;-80
2022/10/12 09:17:53;;;;;;;7.37;4.10;;;;;;;11.74;100.00;99834.22;5053191;28;20201;-80
2022/10/12 09:20:28;;;;;;;8.70;4.00;;;;;;;11.68;100.00;99840.75;4993905;28;20208;-80
2022/10/12 09:23:02;;;;;;;10.20;3.70;;;;;;;11.72;100.00;99836.09;4987231;28;20211;-79
2022/10/12 09:25:31;;;;;;;8.87;3.87;;;;;;;11.75;100.00;99833.28;4993012;28;20253;-79
2022/10/12 09:28:14;;;;;;;8.07;3.80;;;;;;;12.25;100.00;99824.13;4985653;28;20268;-79
2022/10/12 09:30:54;;;;;;;8.13;4.03;;;;;;;12.49;100.00;99825.31;4986045;28;20206;-80
2022/10/12 09:33:27;;;;;;;11.97;3.63;;;;;;;12.88;100.00;99814.03;4915623;29;20201;-80
2022/10/12 09:35:58;;;;;;;8.93;3.60;;;;;;;13.29;100.00;99823.00;4918330;29;20229;-80
2022/10/12 09:38:29;;;;;;;7.43;4.00;;;;;;;13.27;100.00;99816.94;4948920;28;20195;-79
2022/10/12 09:40:59;;;;;;;8.83;3.80;;;;;;;13.56;100.00;99810.56;4991229;28;20219;-80
2022/10/12 09:43:28;;;;;;;6.17;3.53;;;;;;;13.66;100.00;99805.50;4986792;28;20741;-79
2022/10/12 09:46:01;;;;;;;9.60;4.30;;;;;;;14.15;100.00;99803.03;4991723;28;20258;-80
2022/10/12 09:48:29;;;;;;;10.00;3.53;;;;;;;14.62;100.00;99803.41;4990192;28;20187;-80
2022/10/12 09:51:03;;;;;;;8.60;3.47;;;;;;;14.80;100.00;99796.78;5006815;28;20236;-80
2022/10/12 09:53:34;;;;;;;7.80;3.70;;;;;;;15.12;100.00;99795.28;5054953;28;20270;-80
2022/10/12 09:56:07;;;;;;;8.80;3.60;;;;;;;15.28;100.00;99794.19;5056309;28;20198;-79
2022/10/12 09:58:51;;;;;;;29.90;20.67;;;;;;;14.74;100.00;99795.38;5049701;28;20589;-80
2022/10/12 10:01:26;;;;;;;7.97;3.53;;;;;;;14.94;100.00;99803.78;5054406;28;20213;-80
2022/10/12 10:04:09;;;;;;;6.13;3.13;;;;;;;15.03;100.00;99784.44;5054903;28;20321;-80
2022/10/12 10:06:41;;;;;;;8.23;3.93;;;;;;;15.02;100.00;99788.91;5050337;28;20189;-80
2022/10/12 10:09:32;;;;;;;6.63;3.13;;;;;;;15.84;100.00;99784.66;5049881;28;20197;-80
2022/10/12 10:12:13;;;;;;;8.80;4.17;;;;;;;15.64;100.00;99785.31;5052005;28;20286;-80
2022/10/12 10:14:44;;;;;;;5.20;3.10;;;;;;;15.97;100.00;99787.25;5056005;28;20197;-80
2022/10/12 10:17:25;;;;;;;5.70;3.40;;;;;;;15.97;100.00;99790.78;5048310;28;20246;-80
2022/10/12 10:19:55;;;;;;;8.10;3.93;;;;;;;15.96;100.00;99782.88;5052271;28;20356;-79
2022/10/12 10:22:26;;;;;;;9.13;3.73;;;;;;;15.08;100.00;99792.97;5052283;28;20220;-79
2022/10/12 10:24:57;;;;;;;10.43;6.23;;;;;;;14.95;100.00;99800.13;5050634;28;20193;-79
2022/10/12 10:27:36;;;;;;;7.27;3.77;;;;;;;15.88;100.00;99791.47;5054463;28;20193;-80
2022/10/12 10:30:30;;;;;;;13.27;6.10;;;;;;;15.68;100.00;99794.78;5049628;28;20212;-79
2022/10/12 10:33:20;;;;;;;9.27;4.57;;;;;;;15.54;100.00;99793.13;5051335;28;20203;-80
2022/10/12 10:36:01;;;;;;;8.47;4.27;;;;;;;16.48;100.00;99794.88;5053755;28;20197;-79
2022/10/12 10:38:45;;;;;;;8.93;4.97;;;;;;;16.82;100.00;99785.09;5050473;28;20204;-80
2022/10/12 10:41:18;;;;;;;10.90;5.67;;;;;;;17.03;100.00;99778.00;5050587;28;20259;-80
2022/10/12 10:43:49;;;;;;;13.93;7.97;;;;;;;16.65;100.00;99775.69;5012411;28;20197;-79
2022/10/12 10:46:24;;;;;;;14.13;5.77;;;;;;;15.41;100.00;99778.97;5008603;28;20233;-80
2022/10/12 10:48:56;;;;;;;11.50;6.83;;;;;;;15.62;100.00;99774.72;5008875;28;20198;-79
2022/10/12 10:51:44;;;;;;;12.07;8.20;;;;;;;16.42;100.00;99774.84;5011005;28;20195;-80
2022/10/12 10:54:27;;;;;;;11.40;6.13;;;;;;;16.62;100.00;99770.59;5010003;28;20289;-80
2022/10/12 10:57:02;;;;;;;13.40;5.60;;;;;;;16.84;100.00;99767.09;4994023;28;20199;-80
2022/10/12 10:59:39;;;;;;;10.20;6.13;;;;;;;17.62;100.00;99766.03;4983955;28;20244;-80
2022/10/12 11:02:25;;;;;;;10.80;5.80;;;;;;;16.94;100.00;99765.38;5011901;28;20218;-80
2022/10/12 11:05:00;;;;;;;12.63;5.90;;;;;;;16.88;100.00;99758.66;5015546;28;20354;-80
2022/10/12 11:07:37;;;;;;;14.70;6.30;;;;;;;17.35;100.00;99758.44;4984979;28;20220;-80
2022/10/12 11:10:23;;;;;;;14.60;6.30;;;;;;;17.59;100.00;99751.06;5050863;28;20228;-79
2022/10/12 11:12:59;;;;;;;11.77;5.33;;;;;;;17.79;100.00;99756.63;5049728;28;20193;-79
2022/10/12 11:15:34;;;;;;;12.97;5.10;;;;;;;18.03;100.00;99746.47;5053436;28;20197;-80
2022/10/12 11:18:13;;;;;;;15.70;8.93;;;;;;;17.53;100.00;99748.91;5056605;28;20192;-80
2022/10/12 11:20:52;;;;;;;8.27;5.90;;;;;;;17.95;100.00;99751.66;5050861;28;20211;-80
2022/10/12 11:23:38;;;;;;;11.17;6.00;;;;;;;17.44;100.00;99746.97;5051333;28;20217;-80
2022/10/12 11:26:19;;;;;;;14.20;6.97;;;;;;;18.11;100.00;99741.31;5052921;28;20189;-80
2022/10/12 11:28:48;;;;;;;15.50;7.80;;;;;;;18.53;100.00;99742.13;5052206;28;20201;-79
2022/10/12 11:31:21;;;;;;;12.20;7.07;;;;;;;18.45;100.00;99744.63;5053793;28;20244;-80
2022/10/12 11:33:53;;;;;;;13.17;8.23;;;;;;;18.31;100.00;99735.09;5050797;28;20197;-80
2022/10/12 11:36:24;;;;;;;16.37;8.53;;;;;;;18.13;100.00;99739.34;5051826;28;20201;-81
2022/10/12 11:38:57;;;;;;;11.43;8.30;;;;;;;18.09;100.00;99731.72;5055239;28;20193;-80
2022/10/12 11:41:44;;;;;;;18.07;9.00;;;;;;;17.39;100.00;99734.00;5053031;28;20287;-80
2022/10/12 11:44:41;;;;;;;16.77;8.60;;;;;;;17.44;100.00;99731.75;5053530;28;20674;-80
2022/10/12 11:47:22;;;;;;;18.00;9.57;;;;;;;17.30;100.00;99732.06;5052377;28;20197;-81
2022/10/12 11:49:58;;;;;;;18.43;10.40;;;;;;;16.85;100.00;99728.63;5053358;28;20266;-80
2022/10/12 11:52:42;;;;;;;16.67;8.83;;;;;;;17.89;100.00;99718.19;5053816;28;20246;-80
2022/10/12 11:55:54;;;;;;;13.47;8.40;;;;;;;18.55;100.00;99713.31;5052980;28;20189;-80